Mount Robson — P3TB9 — position and weather

sailwx.info

Track history (hours):
 
Tides and Currents Weather Stations Pressure Air Temp Water Temp Dewpoint Dewpoint Depression Visibility Wind Speed Wind Dir Waves Ship Positions

Mount Robson

Last reported at 2014-Jul-25 20:33 UTC. Time now 2014-Jul-26 13:12 UTC.
Position N 36°29' W 001°49'.

Length 181 m; draft 10.9 m.

Type: Tanker. MMSI: 210253000.

Date/timePositionNaut miles runAvg speedWind from/ knotsBaromVisibWave heightAir tempDewpointWater temp
2014-Jul-25 20:33N 36°29' W 001°49'1613.0
2014-Jul-25 19:21N 36°31' W 001°30'15012.4
2014-Jul-25 07:19N 36°51' E 001°35'2312.0
2014-Jul-25 05:22N 36°54' E 002°04'5812.1
2014-Jul-25 00:31N 37°03' E 003°17'1412.4
2014-Jul-24 23:26N 37°04' E 003°34'1112.2
2014-Jul-24 22:33N 37°06' E 003°47'1312.2
2014-Jul-24 21:29N 37°08' E 004°03'1112.0
2014-Jul-24 20:33N 37°09' E 004°17'1212.3
2014-Jul-24 19:33N 37°11' E 004°32'1312.4
2014-Jul-24 18:32N 37°13' E 004°48'1312.6
2014-Jul-24 17:31N 37°14' E 005°04'1212.7
2014-Jul-24 16:33N 37°16' E 005°19'1312.7
2014-Jul-24 15:33N 37°18' E 005°35'1312.7
2014-Jul-24 14:33N 37°19' E 005°51'1412.8
2014-Jul-24 13:29N 37°21' E 006°08'1213.0
2014-Jul-24 12:32N 37°23' E 006°23'8012.9
2014-Jul-24 06:21N 37°34' E 008°03'  
Track history (hours):
 
Tides and Currents Weather Stations Pressure Air Temp Water Temp Dewpoint Dewpoint Depression Visibility Wind Speed Wind Dir Waves Ship Positions

Mount Robson

Last reported at 2014-Jul-25 20:33 UTC. Time now 2014-Jul-26 13:12 UTC.
Position N 36°29' W 001°49'.

Length 181 m; draft 10.9 m.

Type: Tanker. MMSI: 210253000.

Date/timePositionNaut miles runAvg speedWind from/ knotsBaromVisibWave heightAir tempDewpointWater temp
2014-Jul-25 20:33N 36°29' W 001°49'1613.0
2014-Jul-25 19:21N 36°31' W 001°30'15012.4
2014-Jul-25 07:19N 36°51' E 001°35'2312.0
2014-Jul-25 05:22N 36°54' E 002°04'5812.1
2014-Jul-25 00:31N 37°03' E 003°17'1412.4
2014-Jul-24 23:26N 37°04' E 003°34'1112.2
2014-Jul-24 22:33N 37°06' E 003°47'1312.2
2014-Jul-24 21:29N 37°08' E 004°03'1112.0
2014-Jul-24 20:33N 37°09' E 004°17'1212.3
2014-Jul-24 19:33N 37°11' E 004°32'1312.4
2014-Jul-24 18:32N 37°13' E 004°48'1312.6
2014-Jul-24 17:31N 37°14' E 005°04'1212.7
2014-Jul-24 16:33N 37°16' E 005°19'1312.7
2014-Jul-24 15:33N 37°18' E 005°35'1312.7
2014-Jul-24 14:33N 37°19' E 005°51'1412.8
2014-Jul-24 13:29N 37°21' E 006°08'1213.0
2014-Jul-24 12:32N 37°23' E 006°23'8012.9
2014-Jul-24 06:21N 37°34' E 008°03'  

Dump ship's entire track history